createdAt,value
2023-05-23T00:04:52.261Z,0.00
2023-05-23T00:09:52.192Z,0.00
2023-05-23T00:14:52.129Z,0.00
2023-05-23T00:19:52.066Z,0.00
2023-05-23T00:24:52.564Z,0.00
2023-05-23T00:29:51.933Z,0.00
2023-05-23T00:34:51.857Z,0.00
2023-05-23T00:39:51.787Z,0.00
2023-05-23T00:44:51.729Z,0.00
2023-05-23T00:49:51.652Z,0.00
2023-05-23T00:54:51.586Z,0.00
2023-05-23T00:59:51.546Z,0.00
2023-05-23T01:04:51.772Z,0.00
2023-05-23T01:09:51.392Z,0.00
2023-05-23T01:14:51.326Z,0.00
2023-05-23T01:19:51.288Z,0.00
2023-05-23T01:24:51.271Z,0.00
2023-05-23T01:29:51.163Z,0.00
2023-05-23T01:34:51.100Z,0.00
2023-05-23T01:39:51.018Z,0.00
2023-05-23T01:44:50.978Z,0.00
2023-05-23T01:49:50.901Z,0.00
2023-05-23T01:54:50.890Z,0.00
2023-05-23T01:59:50.795Z,0.00
2023-05-23T02:04:50.734Z,0.00
2023-05-23T02:09:50.636Z,0.00
2023-05-23T02:14:50.586Z,0.00
2023-05-23T02:19:50.489Z,0.00
2023-05-23T02:24:50.442Z,0.00
2023-05-23T02:29:50.367Z,0.00
2023-05-23T02:34:50.319Z,0.00
2023-05-23T02:39:50.245Z,0.00
2023-05-23T02:44:50.160Z,4.00
2023-05-23T02:49:50.091Z,12.00
2023-05-23T02:54:50.029Z,20.00
2023-05-23T02:59:49.963Z,36.00
2023-05-23T03:04:49.959Z,64.00
2023-05-23T03:09:49.939Z,100.00
2023-05-23T03:14:49.824Z,136.00
2023-05-23T03:19:49.838Z,188.00
2023-05-23T03:24:49.757Z,232.00
2023-05-23T03:29:49.731Z,308.00
2023-05-23T03:34:49.560Z,444.00
2023-05-23T03:39:49.561Z,640.00
2023-05-23T03:44:49.410Z,892.00
2023-05-23T03:49:49.337Z,1080.00
2023-05-23T03:54:49.274Z,1108.00
2023-05-23T03:59:49.187Z,1056.00
2023-05-23T04:04:49.116Z,996.00
2023-05-23T04:09:49.055Z,1040.00
2023-05-23T04:14:49.045Z,1160.00
2023-05-23T04:19:48.914Z,1452.00
2023-05-23T04:24:48.808Z,1884.00
2023-05-23T04:29:48.707Z,2408.00
2023-05-23T04:34:48.642Z,2836.00
2023-05-23T04:39:48.576Z,2824.00
2023-05-23T04:44:48.516Z,2916.00
2023-05-23T04:49:48.443Z,2508.00
2023-05-23T04:54:48.385Z,2164.00
2023-05-23T04:59:48.305Z,1796.00
2023-05-23T05:04:48.241Z,2120.00
2023-05-23T05:09:48.167Z,2876.00
2023-05-23T05:14:48.097Z,4496.00
2023-05-23T05:19:48.040Z,6328.00
2023-05-23T05:24:47.975Z,8964.00
2023-05-23T05:29:47.901Z,9088.00
2023-05-23T05:34:49.460Z,4408.00
2023-05-23T05:39:47.764Z,3792.00
2023-05-23T05:44:47.709Z,3556.00
2023-05-23T05:49:47.636Z,3304.00
2023-05-23T05:54:47.562Z,5316.00
2023-05-23T05:59:47.491Z,14924.00
2023-05-23T06:04:47.496Z,18688.00
2023-05-23T06:09:47.371Z,23520.00
2023-05-23T06:14:47.303Z,11476.00
2023-05-23T06:19:47.220Z,8400.00
2023-05-23T06:24:47.177Z,5508.00
2023-05-23T06:29:47.119Z,3544.00
2023-05-23T06:34:47.046Z,4148.00
2023-05-23T06:39:46.963Z,6528.00
2023-05-23T06:44:46.905Z,5408.00
2023-05-23T06:49:46.828Z,8184.00
2023-05-23T06:54:46.795Z,7336.00
2023-05-23T06:59:46.696Z,8064.00
2023-05-23T07:04:46.632Z,16576.00
2023-05-23T07:09:46.573Z,14248.00
2023-05-23T07:14:46.500Z,11540.00
2023-05-23T07:19:46.417Z,12172.00
2023-05-23T07:24:46.369Z,7908.00
2023-05-23T07:29:46.280Z,9688.00
2023-05-23T07:34:46.222Z,12040.00
2023-05-23T07:39:46.151Z,18688.00
2023-05-23T07:44:46.096Z,13904.00
2023-05-23T07:49:46.010Z,15968.00
2023-05-23T07:54:45.950Z,16160.00
2023-05-23T07:59:45.892Z,20512.00
2023-05-23T08:04:45.932Z,17888.00
2023-05-23T08:09:45.743Z,20800.00
2023-05-23T08:14:51.592Z,13248.00
2023-05-23T08:19:46.620Z,21920.00
2023-05-23T08:24:45.558Z,17824.00
2023-05-23T08:29:45.487Z,31680.00
2023-05-23T08:34:45.434Z,23552.00
2023-05-23T08:39:45.353Z,13880.00
2023-05-23T08:44:45.314Z,17280.00
2023-05-23T08:49:45.234Z,15712.00
2023-05-23T08:54:45.186Z,13240.00
2023-05-23T08:59:45.099Z,13768.00
2023-05-23T09:04:45.031Z,12232.00
2023-05-23T09:09:44.962Z,13300.00
2023-05-23T09:14:44.902Z,12400.00
2023-05-23T09:19:44.823Z,11580.00
2023-05-23T09:24:44.774Z,10544.00
2023-05-23T09:29:44.700Z,7836.00
2023-05-23T09:34:44.640Z,7540.00
2023-05-23T09:39:44.591Z,5712.00
2023-05-23T09:44:44.505Z,5140.00
2023-05-23T09:49:44.428Z,7100.00
2023-05-23T09:54:44.373Z,10020.00
2023-05-23T09:59:44.296Z,10152.00
2023-05-23T10:04:44.340Z,10888.00
2023-05-23T10:09:44.165Z,8236.00
2023-05-23T10:14:44.107Z,8452.00
2023-05-23T10:19:44.054Z,12440.00
2023-05-23T10:24:43.976Z,15744.00
2023-05-23T10:29:43.952Z,19776.00
2023-05-23T10:34:43.841Z,21696.00
2023-05-23T10:39:43.763Z,18144.00
2023-05-23T10:44:43.709Z,18112.00
2023-05-23T10:49:43.701Z,17216.00
2023-05-23T10:54:43.587Z,16832.00
2023-05-23T10:59:43.503Z,14420.00
2023-05-23T11:04:43.494Z,15200.00
2023-05-23T11:09:43.372Z,15360.00
2023-05-23T11:14:43.310Z,18304.00
2023-05-23T11:19:43.359Z,16512.00
2023-05-23T11:24:43.183Z,16768.00
2023-05-23T11:29:43.110Z,13360.00
2023-05-23T11:34:43.060Z,10788.00
2023-05-23T11:39:42.976Z,12028.00
2023-05-23T11:44:42.919Z,13792.00
2023-05-23T11:49:42.850Z,13884.00
2023-05-23T11:54:42.782Z,12908.00
2023-05-23T11:59:42.719Z,9052.00
2023-05-23T12:04:42.681Z,12264.00
2023-05-23T12:09:42.635Z,14392.00
2023-05-23T12:14:42.513Z,16224.00
2023-05-23T12:19:42.535Z,15744.00
2023-05-23T12:24:42.384Z,15680.00
2023-05-23T12:29:42.322Z,14632.00
2023-05-23T12:34:42.330Z,11716.00
2023-05-23T12:39:42.177Z,7896.00
2023-05-23T12:44:42.202Z,3300.00
2023-05-23T12:49:42.086Z,4300.00
2023-05-23T12:54:41.995Z,6672.00
2023-05-23T12:59:41.920Z,8420.00
2023-05-23T13:04:41.856Z,8100.00
2023-05-23T13:09:41.805Z,6756.00
2023-05-23T13:14:41.725Z,5436.00
2023-05-23T13:19:41.814Z,4860.00
2023-05-23T13:24:41.594Z,4296.00
2023-05-23T13:29:41.525Z,3776.00
2023-05-23T13:34:41.489Z,3404.00
2023-05-23T13:39:41.388Z,3564.00
2023-05-23T13:44:41.328Z,4776.00
2023-05-23T13:49:41.265Z,4984.00
2023-05-23T13:54:41.202Z,5512.00
2023-05-23T13:59:41.131Z,5056.00
2023-05-23T14:04:41.093Z,4588.00
2023-05-23T14:09:41.001Z,5480.00
2023-05-23T14:14:40.930Z,6636.00
2023-05-23T14:19:40.933Z,6700.00
2023-05-23T14:24:40.812Z,7904.00
2023-05-23T14:29:40.752Z,7736.00
2023-05-23T14:34:40.661Z,6148.00
2023-05-23T14:39:41.376Z,4392.00
2023-05-23T14:44:40.520Z,4348.00
2023-05-23T14:49:40.460Z,4872.00
2023-05-23T14:54:40.401Z,4544.00
2023-05-23T14:59:40.358Z,5836.00
2023-05-23T15:04:40.256Z,6512.00
2023-05-23T15:09:40.189Z,4296.00
2023-05-23T15:14:40.143Z,2332.00
2023-05-23T15:19:40.142Z,1184.00
2023-05-23T15:24:40.954Z,1852.00
2023-05-23T15:29:39.935Z,3728.00
2023-05-23T15:34:39.868Z,2480.00
2023-05-23T15:39:39.794Z,1908.00
2023-05-23T15:44:40.705Z,1284.00
2023-05-23T15:49:39.668Z,2088.00
2023-05-23T15:54:39.690Z,1440.00
2023-05-23T15:59:39.581Z,1744.00
2023-05-23T16:04:39.539Z,1468.00
2023-05-23T16:09:39.457Z,1480.00
2023-05-23T16:14:39.362Z,1152.00
2023-05-23T16:19:40.164Z,976.00
2023-05-23T16:24:39.461Z,1028.00
2023-05-23T16:29:39.174Z,1016.00
2023-05-23T16:34:39.470Z,712.00
2023-05-23T16:39:39.053Z,528.00
2023-05-23T16:44:38.996Z,600.00
2023-05-23T16:49:38.905Z,660.00
2023-05-23T16:54:39.632Z,532.00
2023-05-23T16:59:38.781Z,548.00
2023-05-23T17:04:38.694Z,856.00
2023-05-23T17:09:38.620Z,768.00
2023-05-23T17:14:38.533Z,384.00
2023-05-23T17:19:38.561Z,372.00
2023-05-23T17:24:38.636Z,492.00
2023-05-23T17:29:38.346Z,620.00
2023-05-23T17:34:38.267Z,556.00
2023-05-23T17:39:38.532Z,372.00
2023-05-23T17:44:38.125Z,304.00
2023-05-23T17:49:38.050Z,308.00
2023-05-23T17:54:38.031Z,288.00
2023-05-23T17:59:37.909Z,168.00
2023-05-23T18:04:38.379Z,184.00
2023-05-23T18:09:38.787Z,164.00
2023-05-23T18:14:37.707Z,128.00
2023-05-23T18:19:37.711Z,116.00
2023-05-23T18:24:37.582Z,84.00
2023-05-23T18:29:37.525Z,52.00
2023-05-23T18:34:37.447Z,48.00
2023-05-23T18:39:37.410Z,36.00
2023-05-23T18:44:37.324Z,32.00
2023-05-23T18:49:37.257Z,28.00
2023-05-23T18:54:37.180Z,16.00
2023-05-23T18:59:37.127Z,8.00
2023-05-23T19:04:37.057Z,8.00
2023-05-23T19:09:37.003Z,8.00
2023-05-23T19:14:36.925Z,4.00
2023-05-23T19:19:36.885Z,4.00
2023-05-23T19:24:36.785Z,4.00
2023-05-23T19:29:36.723Z,0.00
2023-05-23T19:34:36.679Z,0.00
2023-05-23T19:39:36.602Z,0.00
2023-05-23T19:44:36.519Z,0.00
2023-05-23T19:49:36.477Z,0.00
2023-05-23T19:54:36.426Z,0.00
2023-05-23T19:59:36.352Z,0.00
2023-05-23T20:04:36.265Z,0.00
2023-05-23T20:09:36.197Z,0.00
2023-05-23T20:14:36.125Z,0.00
2023-05-23T20:19:36.089Z,0.00
2023-05-23T20:24:35.995Z,0.00
2023-05-23T20:29:35.935Z,0.00
2023-05-23T20:34:35.867Z,0.00
2023-05-23T20:39:35.796Z,0.00
2023-05-23T20:44:35.758Z,0.00
2023-05-23T20:49:35.695Z,0.00
2023-05-23T20:54:35.591Z,0.00
2023-05-23T20:59:35.535Z,0.00
2023-05-23T21:04:35.458Z,0.00
2023-05-23T21:09:35.401Z,0.00
2023-05-23T21:14:35.345Z,0.00
2023-05-23T21:19:35.299Z,0.00
2023-05-23T21:24:35.232Z,0.00
2023-05-23T21:29:35.140Z,0.00
2023-05-23T21:34:35.093Z,0.00
2023-05-23T21:39:50.039Z,0.00
2023-05-23T21:44:35.950Z,0.00
2023-05-23T21:49:34.888Z,0.00
2023-05-23T21:54:34.859Z,0.00
2023-05-23T21:59:34.746Z,0.00
2023-05-23T22:04:34.684Z,0.00
2023-05-23T22:09:34.619Z,0.00
2023-05-23T22:14:34.547Z,0.00
2023-05-23T22:19:34.562Z,0.00
2023-05-23T22:24:34.429Z,0.00
2023-05-23T22:29:34.371Z,0.00
2023-05-23T22:34:34.291Z,0.00
2023-05-23T22:39:34.233Z,0.00
2023-05-23T22:44:34.164Z,0.00
2023-05-23T22:49:34.101Z,0.00
2023-05-23T22:54:34.039Z,0.00
2023-05-23T22:59:33.973Z,0.00
2023-05-23T23:04:33.896Z,0.00
2023-05-23T23:09:33.859Z,0.00
2023-05-23T23:14:33.779Z,0.00
2023-05-23T23:19:33.710Z,0.00
2023-05-23T23:24:33.646Z,0.00
2023-05-23T23:29:33.572Z,0.00
2023-05-23T23:34:33.513Z,0.00
2023-05-23T23:39:33.451Z,0.00
2023-05-23T23:44:33.377Z,0.00
2023-05-23T23:49:33.315Z,0.00
2023-05-23T23:54:33.241Z,0.00
2023-05-23T23:59:33.199Z,0.00
